createdAt,value
2023-02-09T00:00:18.628Z,-0.55
2023-02-09T00:02:45.707Z,-0.58
2023-02-09T00:05:12.924Z,-0.62
2023-02-09T00:07:40.016Z,-0.60
2023-02-09T00:10:07.261Z,-0.64
2023-02-09T00:12:52.886Z,-0.65
2023-02-09T00:15:19.959Z,-0.70
2023-02-09T00:17:46.984Z,-0.89
2023-02-09T00:20:14.054Z,-0.77
2023-02-09T00:22:41.337Z,-0.80
2023-02-09T00:25:08.373Z,-0.85
2023-02-09T00:27:35.858Z,-0.87
2023-02-09T00:30:03.118Z,-0.94
2023-02-09T00:32:32.593Z,-0.90
2023-02-09T00:34:59.684Z,-0.98
2023-02-09T00:37:26.729Z,-1.01
2023-02-09T00:39:53.814Z,-1.18
2023-02-09T00:42:23.176Z,-1.10
2023-02-09T00:44:50.473Z,-1.15
2023-02-09T00:47:17.541Z,-1.17
2023-02-09T00:49:44.621Z,-1.21
2023-02-09T00:52:11.868Z,-1.20
2023-02-09T00:54:39.008Z,-1.25
2023-02-09T00:57:06.263Z,-1.28
2023-02-09T00:59:35.169Z,-1.30
2023-02-09T01:02:02.925Z,-1.29
2023-02-09T01:04:30.040Z,-1.31
2023-02-09T01:06:57.217Z,-1.38
2023-02-09T01:09:25.077Z,-1.34
2023-02-09T01:11:52.158Z,-1.36
2023-02-09T01:14:19.250Z,-1.42
2023-02-09T01:16:46.493Z,-1.41
2023-02-09T01:19:14.153Z,-1.44
2023-02-09T01:21:42.453Z,-1.42
2023-02-09T01:24:13.757Z,-1.51
2023-02-09T01:26:41.738Z,-1.50
2023-02-09T01:29:13.131Z,-1.57
2023-02-09T01:31:40.733Z,-1.65
2023-02-09T01:34:07.973Z,-1.58
2023-02-09T01:36:35.050Z,-1.63
2023-02-09T01:39:02.950Z,-1.66
2023-02-09T01:41:31.549Z,-1.70
2023-02-09T01:44:07.114Z,-1.72
2023-02-09T01:46:36.247Z,-1.75
2023-02-09T01:49:21.774Z,-1.76
2023-02-09T01:51:55.453Z,-1.72
2023-02-09T01:54:36.846Z,-1.75
2023-02-09T01:57:12.168Z,-1.75
2023-02-09T01:59:41.940Z,-1.75
2023-02-09T02:02:09.867Z,-1.72
2023-02-09T02:04:38.746Z,-1.72
2023-02-09T02:07:14.277Z,-1.72
2023-02-09T02:09:42.967Z,-1.71
2023-02-09T02:12:10.469Z,-1.68
2023-02-09T02:14:39.737Z,-1.69
2023-02-09T02:17:40.843Z,-1.71
2023-02-09T02:20:16.699Z,-1.73
2023-02-09T02:23:03.596Z,-1.73
2023-02-09T02:25:45.644Z,-1.72
2023-02-09T02:28:30.853Z,-1.75
2023-02-09T02:31:16.559Z,-1.77
2023-02-09T02:34:04.697Z,-1.77
2023-02-09T02:36:44.963Z,-1.78
2023-02-09T02:39:22.200Z,-1.78
2023-02-09T02:42:07.547Z,-1.75
2023-02-09T02:44:40.885Z,-1.76
2023-02-09T02:47:13.673Z,-1.77
2023-02-09T02:49:48.992Z,-1.73
2023-02-09T02:52:16.231Z,-1.74
2023-02-09T02:54:49.197Z,-1.74
2023-02-09T02:57:23.440Z,-1.78
2023-02-09T02:59:57.306Z,-1.77
2023-02-09T03:02:34.016Z,-1.79
2023-02-09T03:05:03.293Z,-1.81
2023-02-09T03:07:30.409Z,-1.76
2023-02-09T03:09:57.520Z,-1.78
2023-02-09T03:12:36.418Z,-1.80
2023-02-09T03:15:32.353Z,-1.79
2023-02-09T03:18:04.022Z,-1.81
2023-02-09T03:20:59.231Z,-1.79
2023-02-09T03:23:34.389Z,-1.79
2023-02-09T03:26:12.819Z,-1.82
2023-02-09T03:28:43.539Z,-1.76
2023-02-09T03:31:11.415Z,-1.77
2023-02-09T03:33:39.947Z,-1.82
2023-02-09T03:36:12.814Z,-1.73
2023-02-09T03:38:39.937Z,-1.74
2023-02-09T03:41:08.077Z,-1.74
2023-02-09T03:43:54.071Z,-1.77
2023-02-09T03:46:21.173Z,-1.72
2023-02-09T03:48:49.996Z,-1.74
2023-02-09T03:51:17.058Z,-1.76
2023-02-09T03:53:44.070Z,-1.73
2023-02-09T03:56:11.161Z,-1.72
2023-02-09T03:58:38.224Z,-1.71
2023-02-09T04:01:07.733Z,-1.72
2023-02-09T04:03:36.537Z,-1.79
2023-02-09T04:06:04.096Z,-1.78
2023-02-09T04:08:33.221Z,-1.81
2023-02-09T04:11:00.358Z,-1.81
2023-02-09T04:13:27.625Z,-1.87
2023-02-09T04:15:55.372Z,-1.81
2023-02-09T04:18:22.490Z,-1.84
2023-02-09T04:20:49.499Z,-1.85
2023-02-09T04:23:17.302Z,-1.89
2023-02-09T04:25:45.123Z,-1.94
2023-02-09T04:28:12.607Z,-1.95
2023-02-09T04:30:39.868Z,-1.96
2023-02-09T04:33:06.960Z,-1.94
2023-02-09T04:35:33.958Z,-1.96
2023-02-09T04:38:01.021Z,-1.98
2023-02-09T04:40:28.102Z,-1.97
2023-02-09T04:42:55.139Z,-1.95
2023-02-09T04:45:22.220Z,-2.02
2023-02-09T04:47:49.230Z,-1.89
2023-02-09T04:50:17.368Z,-1.92
2023-02-09T04:52:44.431Z,-1.89
2023-02-09T04:55:11.448Z,-1.89
2023-02-09T04:57:57.435Z,-1.83
2023-02-09T05:00:24.971Z,-1.93
2023-02-09T05:02:52.062Z,-1.97
2023-02-09T05:05:19.722Z,-1.94
2023-02-09T05:07:46.874Z,-1.96
2023-02-09T05:10:14.436Z,-1.97
2023-02-09T05:12:41.569Z,-1.94
2023-02-09T05:15:09.316Z,-1.96
2023-02-09T05:17:37.284Z,-1.97
2023-02-09T05:20:05.052Z,-1.97
2023-02-09T05:22:32.155Z,-2.02
2023-02-09T05:24:59.450Z,-1.89
2023-02-09T05:27:26.539Z,-1.95
2023-02-09T05:29:53.621Z,-2.00
2023-02-09T05:32:20.831Z,-2.04
2023-02-09T05:34:47.939Z,-2.05
2023-02-09T05:37:15.153Z,-2.01
2023-02-09T05:39:42.186Z,-2.04
2023-02-09T05:42:17.206Z,-2.04
2023-02-09T05:44:49.053Z,-2.08
2023-02-09T05:47:18.784Z,-2.08
2023-02-09T05:49:46.006Z,-2.16
2023-02-09T05:52:14.399Z,-2.13
2023-02-09T05:54:41.557Z,-2.17
2023-02-09T05:57:08.843Z,-2.09
2023-02-09T05:59:35.868Z,-2.17
2023-02-09T06:02:02.947Z,-2.09
2023-02-09T06:04:30.563Z,-2.12
2023-02-09T06:06:58.310Z,-2.18
2023-02-09T06:09:25.561Z,-2.12
2023-02-09T06:11:52.708Z,-2.20
2023-02-09T06:14:20.051Z,-2.15
2023-02-09T06:16:47.068Z,-2.24
2023-02-09T06:19:15.865Z,-2.25
2023-02-09T06:21:44.527Z,-2.21
2023-02-09T06:24:12.524Z,-2.16
2023-02-09T06:26:41.710Z,-2.15
2023-02-09T06:29:10.339Z,-2.21
2023-02-09T06:31:38.303Z,-2.23
2023-02-09T06:34:05.820Z,-2.16
2023-02-09T06:36:33.176Z,-2.17
2023-02-09T06:39:01.052Z,-2.14
2023-02-09T06:41:28.538Z,-2.16
2023-02-09T06:43:55.620Z,-2.20
2023-02-09T06:46:22.778Z,-2.23
2023-02-09T06:48:50.495Z,-2.19
2023-02-09T06:51:17.970Z,-2.17
2023-02-09T06:53:45.433Z,-2.16
2023-02-09T06:56:13.341Z,-2.21
2023-02-09T06:58:41.761Z,-2.15
2023-02-09T07:01:15.460Z,-2.12
2023-02-09T07:03:43.461Z,-2.10
2023-02-09T07:06:15.039Z,-2.05
2023-02-09T07:08:43.240Z,-2.06
2023-02-09T07:11:13.474Z,-2.08
2023-02-09T07:13:41.722Z,-2.09
2023-02-09T07:16:11.649Z,-2.04
2023-02-09T07:18:40.287Z,-2.01
2023-02-09T07:21:11.405Z,-1.97
2023-02-09T07:23:39.500Z,-1.94
2023-02-09T07:26:15.614Z,-1.89
2023-02-09T07:28:42.947Z,-1.85
2023-02-09T07:31:13.175Z,-1.91
2023-02-09T07:33:42.030Z,-1.98
2023-02-09T07:36:12.380Z,-1.97
2023-02-09T07:38:41.304Z,-1.93
2023-02-09T07:41:15.039Z,-1.94
2023-02-09T07:43:42.242Z,-1.90
2023-02-09T07:46:10.327Z,-1.85
2023-02-09T07:48:37.850Z,-1.84
2023-02-09T07:51:05.606Z,-1.71
2023-02-09T07:53:33.590Z,-1.62
2023-02-09T07:56:00.695Z,-1.62
2023-02-09T07:58:28.337Z,-1.61
2023-02-09T08:00:55.910Z,-1.60
2023-02-09T08:03:24.592Z,-1.53
2023-02-09T08:06:04.156Z,-1.54
2023-02-09T08:08:31.340Z,-1.52
2023-02-09T08:11:00.194Z,-1.45
2023-02-09T08:13:31.442Z,-1.51
2023-02-09T08:16:04.816Z,-1.54
2023-02-09T08:18:40.414Z,-1.56
2023-02-09T08:21:11.486Z,-1.50
2023-02-09T08:23:41.456Z,-1.48
2023-02-09T08:26:11.404Z,-1.35
2023-02-09T08:28:44.973Z,-1.26
2023-02-09T08:31:17.719Z,-1.16
2023-02-09T08:33:46.681Z,-1.11
2023-02-09T08:36:15.491Z,-1.08
2023-02-09T08:38:42.614Z,-1.05
2023-02-09T08:41:13.564Z,-1.04
2023-02-09T08:43:41.618Z,-0.86
2023-02-09T08:46:12.877Z,-0.85
2023-02-09T08:48:43.799Z,-0.76
2023-02-09T08:51:13.150Z,-0.62
2023-02-09T08:53:43.342Z,-0.60
2023-02-09T08:56:13.111Z,-0.51
2023-02-09T08:58:43.029Z,-0.62
2023-02-09T09:01:11.276Z,-0.66
2023-02-09T09:03:38.376Z,-0.57
2023-02-09T09:06:07.366Z,-0.56
2023-02-09T09:08:36.436Z,-0.55
2023-02-09T09:11:04.023Z,-0.56
2023-02-09T09:13:31.148Z,-0.52
2023-02-09T09:15:58.359Z,-0.45
2023-02-09T09:18:26.149Z,-0.39
2023-02-09T09:20:53.394Z,-0.36
2023-02-09T09:23:21.291Z,-0.24
2023-02-09T09:25:48.861Z,-0.24
2023-02-09T09:28:16.832Z,-0.15
2023-02-09T09:30:44.054Z,-0.17
2023-02-09T09:33:11.964Z,0.04
2023-02-09T09:35:39.156Z,-0.02
2023-02-09T09:38:07.264Z,0.01
2023-02-09T09:40:37.024Z,0.08
2023-02-09T09:43:32.951Z,0.09
2023-02-09T09:46:01.654Z,0.19
2023-02-09T09:48:42.575Z,0.24
2023-02-09T09:51:42.097Z,0.33
2023-02-09T09:54:17.659Z,0.27
2023-02-09T09:56:44.853Z,0.40
2023-02-09T09:59:29.370Z,0.44
2023-02-09T10:02:01.401Z,0.49
2023-02-09T10:04:28.899Z,0.61
2023-02-09T10:07:12.433Z,0.72
2023-02-09T10:09:45.687Z,0.83
2023-02-09T10:12:24.812Z,0.92
2023-02-09T10:14:51.889Z,0.93
2023-02-09T10:17:18.923Z,1.07
2023-02-09T10:20:06.330Z,1.18
2023-02-09T10:22:33.633Z,1.25
2023-02-09T10:25:02.509Z,1.31
2023-02-09T10:27:31.220Z,1.36
2023-02-09T10:30:18.489Z,1.38
2023-02-09T10:32:45.591Z,1.46
2023-02-09T10:35:35.935Z,1.54
2023-02-09T10:38:04.137Z,1.56
2023-02-09T10:40:36.414Z,1.65
2023-02-09T10:43:07.408Z,1.67
2023-02-09T10:45:40.452Z,1.67
2023-02-09T10:48:13.489Z,1.71
2023-02-09T10:50:49.592Z,1.77
2023-02-09T10:53:29.885Z,1.81
2023-02-09T10:56:06.824Z,1.86
2023-02-09T10:58:36.527Z,1.85
2023-02-09T11:01:10.425Z,1.90
2023-02-09T11:03:56.449Z,1.95
2023-02-09T11:06:24.202Z,1.97
2023-02-09T11:09:01.866Z,2.05
2023-02-09T11:11:41.482Z,2.08
2023-02-09T11:14:17.009Z,2.00
2023-02-09T11:16:53.859Z,2.13
2023-02-09T11:19:22.553Z,2.19
2023-02-09T11:22:08.174Z,2.29
2023-02-09T11:24:47.244Z,2.38
2023-02-09T11:27:51.353Z,2.47
2023-02-09T11:30:30.467Z,2.58
2023-02-09T11:33:25.935Z,2.62
2023-02-09T11:36:01.695Z,2.75
2023-02-09T11:38:48.944Z,2.84
2023-02-09T11:41:49.100Z,2.80
2023-02-09T11:44:44.226Z,2.88
2023-02-09T11:47:18.399Z,2.92
2023-02-09T11:49:52.337Z,3.01
2023-02-09T11:52:36.219Z,3.01
2023-02-09T11:55:21.814Z,3.06
2023-02-09T11:57:54.426Z,3.11
2023-02-09T12:00:29.373Z,3.15
2023-02-09T12:03:11.581Z,3.15
2023-02-09T12:05:42.073Z,3.01
2023-02-09T12:08:24.711Z,3.07
2023-02-09T12:11:13.654Z,3.10
2023-02-09T12:13:59.570Z,3.10
2023-02-09T12:16:33.127Z,3.17
2023-02-09T12:19:05.833Z,3.20
2023-02-09T12:21:38.208Z,3.23
2023-02-09T12:24:32.757Z,3.24
2023-02-09T12:26:59.828Z,3.28
2023-02-09T12:29:32.697Z,3.38
2023-02-09T12:32:08.653Z,3.47
2023-02-09T12:34:50.661Z,3.54
2023-02-09T12:37:28.463Z,3.55
2023-02-09T12:40:04.098Z,3.60
2023-02-09T12:43:01.869Z,3.62
2023-02-09T12:45:36.999Z,3.71
2023-02-09T12:48:12.184Z,3.80
2023-02-09T12:50:52.401Z,3.88
2023-02-09T12:53:22.205Z,3.86
2023-02-09T12:56:26.935Z,3.93
2023-02-09T12:59:24.120Z,3.96
2023-02-09T13:02:05.899Z,3.99
2023-02-09T13:04:41.550Z,4.10
2023-02-09T13:07:25.298Z,4.12
2023-02-09T13:09:54.606Z,4.06
2023-02-09T13:12:35.897Z,4.08
2023-02-09T13:15:13.171Z,4.17
2023-02-09T13:18:33.220Z,4.27
2023-02-09T13:21:26.856Z,4.33
2023-02-09T13:24:11.549Z,4.39
2023-02-09T13:26:56.388Z,4.39
2023-02-09T13:29:24.619Z,4.38
2023-02-09T13:31:58.047Z,4.45
2023-02-09T13:35:06.550Z,4.42
2023-02-09T13:37:47.681Z,4.35
2023-02-09T13:40:26.733Z,4.31
2023-02-09T13:42:58.755Z,4.31
2023-02-09T13:45:26.954Z,4.31
2023-02-09T13:47:55.460Z,4.26
2023-02-09T13:50:30.529Z,4.20
2023-02-09T13:53:11.447Z,4.21
2023-02-09T13:55:45.316Z,4.22
2023-02-09T13:58:18.997Z,4.15
2023-02-09T14:00:51.383Z,4.21
2023-02-09T14:03:27.892Z,4.22
2023-02-09T14:05:57.990Z,4.20
2023-02-09T14:08:26.652Z,4.10
2023-02-09T14:11:00.765Z,4.12
2023-02-09T14:13:56.263Z,4.12
2023-02-09T14:16:25.728Z,4.06
2023-02-09T14:18:56.800Z,4.06
2023-02-09T14:21:26.648Z,4.04
2023-02-09T14:23:56.392Z,4.04
2023-02-09T14:26:26.068Z,4.01
2023-02-09T14:29:06.777Z,4.00
2023-02-09T14:31:35.184Z,3.96
2023-02-09T14:34:02.600Z,4.00
2023-02-09T14:36:33.578Z,4.03
2023-02-09T14:39:05.655Z,4.03
2023-02-09T14:41:34.618Z,4.07
2023-02-09T14:44:07.482Z,4.04
2023-02-09T14:46:55.657Z,4.04
2023-02-09T14:49:23.724Z,4.06
2023-02-09T14:52:01.457Z,4.03
2023-02-09T14:54:32.284Z,4.03
2023-02-09T14:57:01.202Z,4.03
2023-02-09T14:59:28.584Z,4.05
2023-02-09T15:01:55.969Z,3.98
2023-02-09T15:04:23.343Z,4.00
2023-02-09T15:07:00.268Z,4.01
2023-02-09T15:09:34.607Z,3.98
2023-02-09T15:12:05.851Z,3.99
2023-02-09T15:14:37.881Z,4.02
2023-02-09T15:17:18.292Z,4.03
2023-02-09T15:19:46.353Z,4.00
2023-02-09T15:22:16.178Z,4.00
2023-02-09T15:24:44.827Z,4.00
2023-02-09T15:27:25.969Z,4.00
2023-02-09T15:29:56.589Z,3.98
2023-02-09T15:32:25.800Z,3.99
2023-02-09T15:34:53.858Z,3.98
2023-02-09T15:37:32.938Z,3.93
2023-02-09T15:40:04.186Z,3.96
2023-02-09T15:42:50.043Z,3.95
2023-02-09T15:45:41.395Z,3.94
2023-02-09T15:48:08.975Z,3.91
2023-02-09T15:50:47.811Z,3.90
2023-02-09T15:53:18.591Z,3.88
2023-02-09T15:55:46.744Z,3.85
2023-02-09T15:58:16.576Z,3.85
2023-02-09T16:00:43.996Z,3.85
2023-02-09T16:03:17.630Z,3.81
2023-02-09T16:05:46.253Z,3.79
2023-02-09T16:08:26.007Z,3.80
2023-02-09T16:10:54.266Z,3.82
2023-02-09T16:13:21.384Z,3.80
2023-02-09T16:15:48.763Z,3.82
2023-02-09T16:18:15.902Z,3.80
2023-02-09T16:20:49.811Z,3.83
2023-02-09T16:23:21.520Z,3.82
2023-02-09T16:25:51.581Z,3.82
2023-02-09T16:28:20.300Z,3.81
2023-02-09T16:30:58.177Z,3.80
2023-02-09T16:33:26.507Z,3.78
2023-02-09T16:35:59.745Z,3.77
2023-02-09T16:38:27.596Z,3.75
2023-02-09T16:40:55.709Z,3.83
2023-02-09T16:43:23.479Z,3.82
2023-02-09T16:46:02.830Z,3.78
2023-02-09T16:48:34.464Z,3.80
2023-02-09T16:51:02.232Z,3.75
2023-02-09T16:53:37.223Z,3.71
2023-02-09T16:56:10.473Z,3.80
2023-02-09T16:58:38.416Z,3.81
2023-02-09T17:01:14.474Z,3.83
2023-02-09T17:03:43.553Z,3.83
2023-02-09T17:06:17.753Z,3.84
2023-02-09T17:08:44.889Z,3.77
2023-02-09T17:11:23.413Z,3.82
2023-02-09T17:13:50.681Z,3.75
2023-02-09T17:16:27.442Z,3.80
2023-02-09T17:18:58.818Z,3.72
2023-02-09T17:21:34.876Z,3.78
2023-02-09T17:24:05.103Z,3.78
2023-02-09T17:26:32.244Z,3.77
2023-02-09T17:28:59.734Z,3.76
2023-02-09T17:31:30.527Z,3.78
2023-02-09T17:34:01.489Z,3.69
2023-02-09T17:36:30.656Z,3.78
2023-02-09T17:38:59.584Z,3.79
2023-02-09T17:41:41.939Z,3.78
2023-02-09T17:44:35.301Z,3.77
2023-02-09T17:47:15.304Z,3.75
2023-02-09T17:49:42.459Z,3.71
2023-02-09T17:52:18.430Z,3.75
2023-02-09T17:54:45.958Z,3.72
2023-02-09T17:57:17.037Z,3.73
2023-02-09T17:59:44.411Z,3.72
2023-02-09T18:02:16.517Z,3.71
2023-02-09T18:04:44.122Z,3.77
2023-02-09T18:07:20.065Z,3.75
2023-02-09T18:09:47.349Z,3.73
2023-02-09T18:12:20.844Z,3.75
2023-02-09T18:14:48.374Z,3.61
2023-02-09T18:17:15.523Z,3.62
2023-02-09T18:19:42.636Z,3.65
2023-02-09T18:22:13.791Z,3.57
2023-02-09T18:24:41.774Z,3.61
2023-02-09T18:27:14.650Z,3.57
2023-02-09T18:29:41.716Z,3.42
2023-02-09T18:32:12.616Z,3.46
2023-02-09T18:34:40.344Z,3.41
2023-02-09T18:37:07.405Z,3.35
2023-02-09T18:39:41.178Z,3.36
2023-02-09T18:42:11.294Z,3.31
2023-02-09T18:44:38.259Z,3.24
2023-02-09T18:47:05.778Z,3.17
2023-02-09T18:49:32.880Z,3.07
2023-02-09T18:52:00.764Z,3.09
2023-02-09T18:54:29.207Z,3.04
2023-02-09T18:56:56.410Z,2.84
2023-02-09T18:59:27.867Z,2.94
2023-02-09T19:01:55.072Z,2.89
2023-02-09T19:04:22.151Z,2.82
2023-02-09T19:06:49.275Z,2.70
2023-02-09T19:09:16.400Z,2.71
2023-02-09T19:11:43.585Z,2.65
2023-02-09T19:14:29.804Z,2.59
2023-02-09T19:16:56.914Z,2.55
2023-02-09T19:19:24.542Z,2.52
2023-02-09T19:21:52.172Z,2.50
2023-02-09T19:24:19.224Z,2.47
2023-02-09T19:26:46.295Z,2.53
2023-02-09T19:29:14.004Z,2.45
2023-02-09T19:31:41.670Z,2.53
2023-02-09T19:34:08.749Z,2.60
2023-02-09T19:36:35.844Z,2.61
2023-02-09T19:39:03.153Z,2.61
2023-02-09T19:41:30.253Z,2.62
2023-02-09T19:43:58.150Z,2.62
2023-02-09T19:46:25.510Z,2.66
2023-02-09T19:48:53.764Z,2.67
2023-02-09T19:51:21.436Z,2.67
2023-02-09T19:53:49.212Z,2.63
2023-02-09T19:56:19.283Z,2.62
2023-02-09T19:58:46.655Z,2.57
2023-02-09T20:01:13.752Z,2.59
2023-02-09T20:03:41.774Z,2.60
2023-02-09T20:06:12.270Z,2.52
2023-02-09T20:08:40.378Z,2.38
2023-02-09T20:11:11.534Z,2.34
2023-02-09T20:13:40.319Z,2.28
2023-02-09T20:16:13.524Z,2.18
2023-02-09T20:18:43.442Z,2.16
2023-02-09T20:21:12.238Z,2.05
2023-02-09T20:23:40.402Z,2.03
2023-02-09T20:26:12.992Z,1.99
2023-02-09T20:28:41.261Z,1.97
2023-02-09T20:31:09.370Z,1.86
2023-02-09T20:33:38.438Z,1.89
2023-02-09T20:36:07.714Z,1.83
2023-02-09T20:38:36.526Z,1.85
2023-02-09T20:41:10.342Z,1.86
2023-02-09T20:43:57.464Z,1.84
2023-02-09T20:46:45.149Z,1.88
2023-02-09T20:49:14.675Z,1.90
2023-02-09T20:51:42.432Z,1.91
2023-02-09T20:54:10.326Z,1.87
2023-02-09T20:56:38.414Z,1.90
2023-02-09T20:59:06.833Z,1.86
2023-02-09T21:01:36.467Z,1.92
2023-02-09T21:04:03.813Z,1.86
2023-02-09T21:06:30.885Z,1.93
2023-02-09T21:08:58.366Z,1.88
2023-02-09T21:11:25.450Z,1.83
2023-02-09T21:13:52.598Z,1.79
2023-02-09T21:16:20.518Z,1.75
2023-02-09T21:18:47.620Z,1.70
2023-02-09T21:21:17.015Z,1.68
2023-02-09T21:23:45.676Z,1.58
2023-02-09T21:26:16.435Z,1.58
2023-02-09T21:28:43.907Z,1.52
2023-02-09T21:31:17.002Z,1.42
2023-02-09T21:33:44.241Z,1.44
2023-02-09T21:36:11.720Z,1.43
2023-02-09T21:38:41.645Z,1.41
2023-02-09T21:41:34.994Z,1.44
2023-02-09T21:44:02.524Z,1.42
2023-02-09T21:46:29.893Z,1.49
2023-02-09T21:48:57.056Z,1.47
2023-02-09T21:51:24.349Z,1.47
2023-02-09T21:53:51.975Z,1.47
2023-02-09T21:56:19.447Z,1.46
2023-02-09T21:58:46.843Z,1.48
2023-02-09T22:01:14.001Z,1.51
2023-02-09T22:03:44.579Z,1.41
2023-02-09T22:06:11.783Z,1.47
2023-02-09T22:08:38.971Z,1.47
2023-02-09T22:11:06.201Z,1.47
2023-02-09T22:13:33.737Z,1.46
2023-02-09T22:16:06.189Z,1.47
2023-02-09T22:18:33.854Z,1.44
2023-02-09T22:21:01.225Z,1.43
2023-02-09T22:23:28.896Z,1.43
2023-02-09T22:26:00.806Z,1.46
2023-02-09T22:28:29.034Z,1.47
2023-02-09T22:30:56.585Z,1.46
2023-02-09T22:33:24.062Z,1.45
2023-02-09T22:35:51.142Z,1.50
2023-02-09T22:38:18.170Z,1.55
2023-02-09T22:40:45.227Z,1.56
2023-02-09T22:43:12.302Z,1.56
2023-02-09T22:45:40.269Z,1.64
2023-02-09T22:48:07.621Z,1.67
2023-02-09T22:50:35.347Z,1.69
2023-02-09T22:53:02.648Z,1.74
2023-02-09T22:55:29.715Z,1.81
2023-02-09T22:57:56.776Z,1.79
2023-02-09T23:00:23.909Z,1.80
2023-02-09T23:02:51.070Z,1.78
2023-02-09T23:05:18.203Z,1.78
2023-02-09T23:07:46.311Z,1.80
2023-02-09T23:10:13.756Z,1.83
2023-02-09T23:12:42.553Z,1.82
2023-02-09T23:15:10.440Z,1.84
2023-02-09T23:17:37.546Z,1.84
2023-02-09T23:20:04.811Z,1.87
2023-02-09T23:22:31.855Z,1.92
2023-02-09T23:25:01.500Z,1.94
2023-02-09T23:27:29.235Z,1.92
2023-02-09T23:29:56.280Z,1.88
2023-02-09T23:32:23.324Z,1.91
2023-02-09T23:34:50.414Z,1.86
2023-02-09T23:37:23.678Z,1.93
2023-02-09T23:40:01.983Z,1.90
2023-02-09T23:42:29.337Z,1.91
2023-02-09T23:44:56.475Z,1.95
2023-02-09T23:47:23.531Z,1.93
2023-02-09T23:49:50.688Z,1.90
2023-02-09T23:52:17.791Z,1.76
2023-02-09T23:54:44.849Z,1.79
2023-02-09T23:57:11.991Z,1.80
2023-02-09T23:59:39.094Z,1.81
